sensor_id;sensor_type;location;lat;lon;timestamp;P1;durP1;ratioP1;P2;durP2;ratioP2
11305;SDS011;5708;50.660;6.778;2023-04-03T00:00:28;4.43;;;1.90;;
11305;SDS011;5708;50.660;6.778;2023-04-03T00:02:53;5.65;;;2.00;;
11305;SDS011;5708;50.660;6.778;2023-04-03T00:05:19;3.85;;;1.70;;
11305;SDS011;5708;50.660;6.778;2023-04-03T00:07:44;5.90;;;2.03;;
11305;SDS011;5708;50.660;6.778;2023-04-03T00:10:09;5.83;;;1.80;;
11305;SDS011;5708;50.660;6.778;2023-04-03T00:12:35;7.93;;;2.05;;
11305;SDS011;5708;50.660;6.778;2023-04-03T00:15:00;3.40;;;1.60;;
11305;SDS011;5708;50.660;6.778;2023-04-03T00:17:25;6.60;;;2.10;;
11305;SDS011;5708;50.660;6.778;2023-04-03T00:19:50;6.13;;;2.30;;
11305;SDS011;5708;50.660;6.778;2023-04-03T00:22:15;4.43;;;2.60;;
11305;SDS011;5708;50.660;6.778;2023-04-03T00:24:41;5.00;;;1.80;;
11305;SDS011;5708;50.660;6.778;2023-04-03T00:27:06;5.32;;;2.10;;
11305;SDS011;5708;50.660;6.778;2023-04-03T00:29:32;4.77;;;1.77;;
11305;SDS011;5708;50.660;6.778;2023-04-03T00:31:57;3.77;;;1.57;;
11305;SDS011;5708;50.660;6.778;2023-04-03T00:34:22;7.35;;;2.50;;
11305;SDS011;5708;50.660;6.778;2023-04-03T00:36:47;5.17;;;1.93;;
11305;SDS011;5708;50.660;6.778;2023-04-03T00:39:12;5.93;;;2.17;;
11305;SDS011;5708;50.660;6.778;2023-04-03T00:41:38;4.90;;;1.90;;
11305;SDS011;5708;50.660;6.778;2023-04-03T00:44:22;4.30;;;2.00;;
11305;SDS011;5708;50.660;6.778;2023-04-03T00:46:48;6.60;;;2.08;;
11305;SDS011;5708;50.660;6.778;2023-04-03T00:49:13;4.60;;;1.90;;
11305;SDS011;5708;50.660;6.778;2023-04-03T00:51:38;3.93;;;1.87;;
11305;SDS011;5708;50.660;6.778;2023-04-03T00:54:05;2.95;;;1.60;;
11305;SDS011;5708;50.660;6.778;2023-04-03T00:56:31;5.63;;;2.08;;
11305;SDS011;5708;50.660;6.778;2023-04-03T00:58:59;4.10;;;1.80;;
11305;SDS011;5708;50.660;6.778;2023-04-03T01:01:25;4.35;;;1.90;;
11305;SDS011;5708;50.660;6.778;2023-04-03T01:03:51;4.57;;;1.90;;
11305;SDS011;5708;50.660;6.778;2023-04-03T01:06:17;7.03;;;1.80;;
11305;SDS011;5708;50.660;6.778;2023-04-03T01:08:46;7.18;;;1.80;;
11305;SDS011;5708;50.660;6.778;2023-04-03T01:11:13;5.45;;;1.70;;
11305;SDS011;5708;50.660;6.778;2023-04-03T01:13:38;5.43;;;2.07;;
11305;SDS011;5708;50.660;6.778;2023-04-03T01:16:05;8.60;;;2.35;;
11305;SDS011;5708;50.660;6.778;2023-04-03T01:18:31;4.50;;;1.92;;
11305;SDS011;5708;50.660;6.778;2023-04-03T01:26:25;6.90;;;2.30;;
11305;SDS011;5708;50.660;6.778;2023-04-03T01:28:51;3.97;;;1.83;;
11305;SDS011;5708;50.660;6.778;2023-04-03T01:31:25;5.72;;;1.98;;
11305;SDS011;5708;50.660;6.778;2023-04-03T01:33:51;5.78;;;2.53;;
11305;SDS011;5708;50.660;6.778;2023-04-03T01:36:27;3.85;;;1.80;;
11305;SDS011;5708;50.660;6.778;2023-04-03T01:38:53;6.75;;;2.95;;
11305;SDS011;5708;50.660;6.778;2023-04-03T01:41:18;7.63;;;2.10;;
11305;SDS011;5708;50.660;6.778;2023-04-03T01:43:45;4.65;;;2.05;;
11305;SDS011;5708;50.660;6.778;2023-04-03T01:46:11;6.70;;;2.08;;
11305;SDS011;5708;50.660;6.778;2023-04-03T01:48:36;4.07;;;2.00;;
11305;SDS011;5708;50.660;6.778;2023-04-03T01:51:01;7.57;;;2.10;;
11305;SDS011;5708;50.660;6.778;2023-04-03T01:53:26;6.03;;;2.20;;
11305;SDS011;5708;50.660;6.778;2023-04-03T01:55:51;6.47;;;2.30;;
11305;SDS011;5708;50.660;6.778;2023-04-03T01:58:17;5.55;;;2.40;;
11305;SDS011;5708;50.660;6.778;2023-04-03T02:00:42;5.13;;;2.37;;
11305;SDS011;5708;50.660;6.778;2023-04-03T02:03:07;4.57;;;2.08;;
11305;SDS011;5708;50.660;6.778;2023-04-03T02:05:32;6.37;;;2.20;;
11305;SDS011;5708;50.660;6.778;2023-04-03T02:07:58;7.63;;;2.33;;
11305;SDS011;5708;50.660;6.778;2023-04-03T02:10:23;7.33;;;2.70;;
11305;SDS011;5708;50.660;6.778;2023-04-03T02:12:48;5.72;;;2.22;;
11305;SDS011;5708;50.660;6.778;2023-04-03T02:15:13;4.65;;;2.15;;
11305;SDS011;5708;50.660;6.778;2023-04-03T02:17:39;5.83;;;2.40;;
11305;SDS011;5708;50.660;6.778;2023-04-03T02:20:04;5.53;;;2.60;;
11305;SDS011;5708;50.660;6.778;2023-04-03T02:22:30;6.18;;;2.55;;
11305;SDS011;5708;50.660;6.778;2023-04-03T02:24:55;5.95;;;2.38;;
11305;SDS011;5708;50.660;6.778;2023-04-03T02:27:20;5.67;;;2.40;;
11305;SDS011;5708;50.660;6.778;2023-04-03T02:29:45;8.07;;;3.67;;
11305;SDS011;5708;50.660;6.778;2023-04-03T02:32:10;6.07;;;2.13;;
11305;SDS011;5708;50.660;6.778;2023-04-03T02:34:36;6.55;;;2.20;;
11305;SDS011;5708;50.660;6.778;2023-04-03T02:37:01;5.90;;;2.37;;
11305;SDS011;5708;50.660;6.778;2023-04-03T02:39:26;7.78;;;3.25;;
11305;SDS011;5708;50.660;6.778;2023-04-03T02:41:52;6.60;;;3.00;;
11305;SDS011;5708;50.660;6.778;2023-04-03T02:44:17;6.13;;;2.60;;
11305;SDS011;5708;50.660;6.778;2023-04-03T02:46:43;7.82;;;2.50;;
11305;SDS011;5708;50.660;6.778;2023-04-03T02:49:09;5.72;;;2.30;;
11305;SDS011;5708;50.660;6.778;2023-04-03T02:51:34;6.80;;;2.72;;
11305;SDS011;5708;50.660;6.778;2023-04-03T02:53:59;5.40;;;2.58;;
11305;SDS011;5708;50.660;6.778;2023-04-03T02:56:25;6.80;;;2.97;;
11305;SDS011;5708;50.660;6.778;2023-04-03T02:58:51;7.07;;;2.90;;
11305;SDS011;5708;50.660;6.778;2023-04-03T03:01:17;8.93;;;3.05;;
11305;SDS011;5708;50.660;6.778;2023-04-03T03:03:42;7.95;;;3.05;;
11305;SDS011;5708;50.660;6.778;2023-04-03T03:06:09;7.00;;;2.90;;
11305;SDS011;5708;50.660;6.778;2023-04-03T03:08:34;6.38;;;2.53;;
11305;SDS011;5708;50.660;6.778;2023-04-03T03:11:00;5.68;;;2.63;;
11305;SDS011;5708;50.660;6.778;2023-04-03T03:13:25;8.27;;;2.70;;
11305;SDS011;5708;50.660;6.778;2023-04-03T03:15:51;4.28;;;2.50;;
11305;SDS011;5708;50.660;6.778;2023-04-03T03:18:16;5.38;;;2.47;;
11305;SDS011;5708;50.660;6.778;2023-04-03T03:20:41;8.03;;;2.77;;
11305;SDS011;5708;50.660;6.778;2023-04-03T03:23:06;7.25;;;2.80;;
11305;SDS011;5708;50.660;6.778;2023-04-03T03:25:32;5.70;;;2.80;;
11305;SDS011;5708;50.660;6.778;2023-04-03T03:27:57;9.70;;;3.40;;
11305;SDS011;5708;50.660;6.778;2023-04-03T03:30:22;6.63;;;3.07;;
11305;SDS011;5708;50.660;6.778;2023-04-03T03:32:47;8.23;;;2.90;;
11305;SDS011;5708;50.660;6.778;2023-04-03T03:35:13;7.30;;;3.28;;
11305;SDS011;5708;50.660;6.778;2023-04-03T03:37:38;6.05;;;2.78;;
11305;SDS011;5708;50.660;6.778;2023-04-03T03:40:03;8.30;;;3.20;;
11305;SDS011;5708;50.660;6.778;2023-04-03T03:42:28;8.82;;;3.10;;
11305;SDS011;5708;50.660;6.778;2023-04-03T03:44:54;8.53;;;3.13;;
11305;SDS011;5708;50.660;6.778;2023-04-03T03:47:19;8.70;;;3.50;;
11305;SDS011;5708;50.660;6.778;2023-04-03T03:49:45;9.05;;;3.92;;
11305;SDS011;5708;50.660;6.778;2023-04-03T03:52:10;8.77;;;3.60;;
11305;SDS011;5708;50.660;6.778;2023-04-03T03:54:35;5.43;;;2.90;;
11305;SDS011;5708;50.660;6.778;2023-04-03T03:57:04;6.57;;;3.08;;
11305;SDS011;5708;50.660;6.778;2023-04-03T03:59:29;8.90;;;3.53;;
11305;SDS011;5708;50.660;6.778;2023-04-03T04:01:54;7.28;;;3.35;;
11305;SDS011;5708;50.660;6.778;2023-04-03T04:04:20;6.63;;;3.35;;
11305;SDS011;5708;50.660;6.778;2023-04-03T04:06:45;7.80;;;3.83;;
11305;SDS011;5708;50.660;6.778;2023-04-03T04:09:11;5.32;;;2.90;;
11305;SDS011;5708;50.660;6.778;2023-04-03T04:11:36;8.60;;;3.20;;
11305;SDS011;5708;50.660;6.778;2023-04-03T04:14:01;5.85;;;2.85;;
11305;SDS011;5708;50.660;6.778;2023-04-03T04:16:26;6.38;;;2.85;;
11305;SDS011;5708;50.660;6.778;2023-04-03T04:18:52;7.23;;;2.87;;
11305;SDS011;5708;50.660;6.778;2023-04-03T04:21:17;9.23;;;3.33;;
11305;SDS011;5708;50.660;6.778;2023-04-03T04:23:42;7.37;;;3.40;;
11305;SDS011;5708;50.660;6.778;2023-04-03T04:26:07;7.90;;;3.40;;
11305;SDS011;5708;50.660;6.778;2023-04-03T04:28:32;5.83;;;3.07;;
11305;SDS011;5708;50.660;6.778;2023-04-03T04:30:58;9.18;;;3.70;;
11305;SDS011;5708;50.660;6.778;2023-04-03T04:33:23;8.30;;;3.30;;
11305;SDS011;5708;50.660;6.778;2023-04-03T04:35:48;5.82;;;3.17;;
11305;SDS011;5708;50.660;6.778;2023-04-03T04:38:13;7.93;;;4.05;;
11305;SDS011;5708;50.660;6.778;2023-04-03T04:40:39;8.03;;;3.43;;
11305;SDS011;5708;50.660;6.778;2023-04-03T04:43:04;11.60;;;5.15;;
11305;SDS011;5708;50.660;6.778;2023-04-03T04:45:29;16.08;;;5.90;;
11305;SDS011;5708;50.660;6.778;2023-04-03T04:47:55;9.77;;;4.00;;
11305;SDS011;5708;50.660;6.778;2023-04-03T04:50:21;8.38;;;4.10;;
11305;SDS011;5708;50.660;6.778;2023-04-03T04:52:46;9.00;;;3.38;;
11305;SDS011;5708;50.660;6.778;2023-04-03T04:55:11;11.13;;;3.65;;
11305;SDS011;5708;50.660;6.778;2023-04-03T04:57:36;6.63;;;3.20;;
11305;SDS011;5708;50.660;6.778;2023-04-03T05:00:03;4.40;;;2.53;;
11305;SDS011;5708;50.660;6.778;2023-04-03T05:02:29;6.60;;;3.00;;
11305;SDS011;5708;50.660;6.778;2023-04-03T05:04:55;7.35;;;2.97;;
11305;SDS011;5708;50.660;6.778;2023-04-03T05:07:20;5.17;;;2.83;;
11305;SDS011;5708;50.660;6.778;2023-04-03T05:09:45;7.70;;;2.93;;
11305;SDS011;5708;50.660;6.778;2023-04-03T05:12:10;6.18;;;2.80;;
11305;SDS011;5708;50.660;6.778;2023-04-03T05:14:36;6.70;;;2.85;;
11305;SDS011;5708;50.660;6.778;2023-04-03T05:17:01;9.07;;;3.13;;
11305;SDS011;5708;50.660;6.778;2023-04-03T05:19:26;6.37;;;2.90;;
11305;SDS011;5708;50.660;6.778;2023-04-03T05:21:51;8.63;;;3.13;;
11305;SDS011;5708;50.660;6.778;2023-04-03T05:24:20;7.37;;;2.93;;
11305;SDS011;5708;50.660;6.778;2023-04-03T05:26:45;7.57;;;3.28;;
11305;SDS011;5708;50.660;6.778;2023-04-03T05:29:10;7.10;;;3.10;;
11305;SDS011;5708;50.660;6.778;2023-04-03T05:31:36;7.40;;;3.15;;
11305;SDS011;5708;50.660;6.778;2023-04-03T05:34:01;10.07;;;3.53;;
11305;SDS011;5708;50.660;6.778;2023-04-03T05:36:27;6.35;;;3.08;;
11305;SDS011;5708;50.660;6.778;2023-04-03T05:38:52;7.20;;;2.93;;
11305;SDS011;5708;50.660;6.778;2023-04-03T05:41:17;5.78;;;3.13;;
11305;SDS011;5708;50.660;6.778;2023-04-03T05:43:43;7.85;;;2.80;;
11305;SDS011;5708;50.660;6.778;2023-04-03T05:46:12;12.20;;;3.37;;
11305;SDS011;5708;50.660;6.778;2023-04-03T05:48:37;9.70;;;3.25;;
11305;SDS011;5708;50.660;6.778;2023-04-03T05:51:03;11.98;;;3.05;;
11305;SDS011;5708;50.660;6.778;2023-04-03T05:53:29;5.25;;;2.63;;
11305;SDS011;5708;50.660;6.778;2023-04-03T05:55:55;5.72;;;2.97;;
11305;SDS011;5708;50.660;6.778;2023-04-03T05:58:21;5.68;;;2.85;;
11305;SDS011;5708;50.660;6.778;2023-04-03T06:00:46;7.70;;;2.70;;
11305;SDS011;5708;50.660;6.778;2023-04-03T06:03:11;7.32;;;3.00;;
11305;SDS011;5708;50.660;6.778;2023-04-03T06:05:37;7.23;;;2.93;;
11305;SDS011;5708;50.660;6.778;2023-04-03T06:08:02;7.40;;;2.93;;
11305;SDS011;5708;50.660;6.778;2023-04-03T06:10:28;8.20;;;3.30;;
11305;SDS011;5708;50.660;6.778;2023-04-03T06:12:53;8.60;;;4.00;;
11305;SDS011;5708;50.660;6.778;2023-04-03T06:15:18;6.20;;;3.05;;
11305;SDS011;5708;50.660;6.778;2023-04-03T06:17:44;8.23;;;3.22;;
11305;SDS011;5708;50.660;6.778;2023-04-03T06:20:10;8.47;;;2.90;;
11305;SDS011;5708;50.660;6.778;2023-04-03T06:22:35;8.77;;;2.60;;
11305;SDS011;5708;50.660;6.778;2023-04-03T06:25:01;6.57;;;2.80;;
11305;SDS011;5708;50.660;6.778;2023-04-03T06:27:26;12.88;;;3.63;;
11305;SDS011;5708;50.660;6.778;2023-04-03T06:29:51;6.07;;;2.47;;
11305;SDS011;5708;50.660;6.778;2023-04-03T06:32:16;5.53;;;2.50;;
11305;SDS011;5708;50.660;6.778;2023-04-03T06:34:42;6.57;;;2.67;;
11305;SDS011;5708;50.660;6.778;2023-04-03T06:37:17;10.05;;;2.70;;
11305;SDS011;5708;50.660;6.778;2023-04-03T06:39:43;5.38;;;2.53;;
11305;SDS011;5708;50.660;6.778;2023-04-03T06:42:08;5.57;;;2.33;;
11305;SDS011;5708;50.660;6.778;2023-04-03T06:44:34;10.40;;;2.83;;
11305;SDS011;5708;50.660;6.778;2023-04-03T06:46:59;6.47;;;2.33;;
11305;SDS011;5708;50.660;6.778;2023-04-03T06:49:25;7.32;;;3.00;;
11305;SDS011;5708;50.660;6.778;2023-04-03T06:51:50;6.13;;;2.57;;
11305;SDS011;5708;50.660;6.778;2023-04-03T06:54:16;6.15;;;2.97;;
11305;SDS011;5708;50.660;6.778;2023-04-03T06:56:41;7.00;;;2.40;;
11305;SDS011;5708;50.660;6.778;2023-04-03T06:59:07;9.73;;;3.20;;
11305;SDS011;5708;50.660;6.778;2023-04-03T07:01:33;8.68;;;2.80;;
11305;SDS011;5708;50.660;6.778;2023-04-03T07:03:58;10.65;;;2.70;;
11305;SDS011;5708;50.660;6.778;2023-04-03T07:06:24;5.47;;;2.08;;
11305;SDS011;5708;50.660;6.778;2023-04-03T07:08:51;6.63;;;2.08;;
11305;SDS011;5708;50.660;6.778;2023-04-03T07:11:17;5.00;;;1.95;;
11305;SDS011;5708;50.660;6.778;2023-04-03T07:13:42;5.43;;;2.30;;
11305;SDS011;5708;50.660;6.778;2023-04-03T07:16:08;7.15;;;2.15;;
11305;SDS011;5708;50.660;6.778;2023-04-03T07:18:33;6.53;;;1.92;;
11305;SDS011;5708;50.660;6.778;2023-04-03T07:20:58;8.07;;;2.20;;
11305;SDS011;5708;50.660;6.778;2023-04-03T07:23:24;7.40;;;2.28;;
11305;SDS011;5708;50.660;6.778;2023-04-03T07:25:50;6.68;;;2.40;;
11305;SDS011;5708;50.660;6.778;2023-04-03T07:28:16;6.55;;;2.05;;
11305;SDS011;5708;50.660;6.778;2023-04-03T07:30:45;5.43;;;2.05;;
11305;SDS011;5708;50.660;6.778;2023-04-03T07:33:11;7.00;;;2.17;;
11305;SDS011;5708;50.660;6.778;2023-04-03T07:35:36;6.18;;;1.60;;
11305;SDS011;5708;50.660;6.778;2023-04-03T07:38:02;6.65;;;1.90;;
11305;SDS011;5708;50.660;6.778;2023-04-03T07:40:27;4.60;;;1.50;;
11305;SDS011;5708;50.660;6.778;2023-04-03T07:42:52;5.00;;;1.73;;
11305;SDS011;5708;50.660;6.778;2023-04-03T07:45:17;9.77;;;1.80;;
11305;SDS011;5708;50.660;6.778;2023-04-03T07:47:42;6.00;;;1.50;;
11305;SDS011;5708;50.660;6.778;2023-04-03T07:50:08;5.53;;;1.73;;
11305;SDS011;5708;50.660;6.778;2023-04-03T07:52:33;9.02;;;2.20;;
11305;SDS011;5708;50.660;6.778;2023-04-03T07:54:58;6.57;;;1.60;;
11305;SDS011;5708;50.660;6.778;2023-04-03T07:57:23;3.40;;;1.60;;
11305;SDS011;5708;50.660;6.778;2023-04-03T07:59:48;5.10;;;1.90;;
11305;SDS011;5708;50.660;6.778;2023-04-03T08:02:14;7.03;;;1.90;;
11305;SDS011;5708;50.660;6.778;2023-04-03T08:04:39;4.93;;;1.60;;
11305;SDS011;5708;50.660;6.778;2023-04-03T08:07:04;4.57;;;1.27;;
11305;SDS011;5708;50.660;6.778;2023-04-03T08:09:30;6.80;;;1.73;;
11305;SDS011;5708;50.660;6.778;2023-04-03T08:11:56;8.00;;;1.55;;
11305;SDS011;5708;50.660;6.778;2023-04-03T08:14:21;5.50;;;1.20;;
11305;SDS011;5708;50.660;6.778;2023-04-03T08:16:47;6.90;;;1.65;;
11305;SDS011;5708;50.660;6.778;2023-04-03T08:19:13;14.45;;;1.63;;
11305;SDS011;5708;50.660;6.778;2023-04-03T08:21:42;5.00;;;1.40;;
11305;SDS011;5708;50.660;6.778;2023-04-03T08:24:07;6.53;;;1.83;;
11305;SDS011;5708;50.660;6.778;2023-04-03T08:26:33;4.75;;;1.65;;
11305;SDS011;5708;50.660;6.778;2023-04-03T08:28:59;4.55;;;1.42;;
11305;SDS011;5708;50.660;6.778;2023-04-03T08:31:24;5.35;;;1.45;;
11305;SDS011;5708;50.660;6.778;2023-04-03T08:33:50;7.85;;;2.05;;
11305;SDS011;5708;50.660;6.778;2023-04-03T08:36:25;8.77;;;1.70;;
11305;SDS011;5708;50.660;6.778;2023-04-03T08:38:52;4.40;;;1.30;;
11305;SDS011;5708;50.660;6.778;2023-04-03T08:44:00;6.67;;;1.70;;
11305;SDS011;5708;50.660;6.778;2023-04-03T08:49:26;6.70;;;1.40;;
11305;SDS011;5708;50.660;6.778;2023-04-03T08:51:51;6.72;;;1.48;;
11305;SDS011;5708;50.660;6.778;2023-04-03T08:54:22;7.50;;;1.83;;
11305;SDS011;5708;50.660;6.778;2023-04-03T08:56:49;4.65;;;1.48;;
11305;SDS011;5708;50.660;6.778;2023-04-03T08:59:16;8.23;;;1.50;;
11305;SDS011;5708;50.660;6.778;2023-04-03T09:01:44;7.20;;;1.90;;
11305;SDS011;5708;50.660;6.778;2023-04-03T09:04:13;7.68;;;1.60;;
11305;SDS011;5708;50.660;6.778;2023-04-03T09:06:39;5.43;;;1.70;;
11305;SDS011;5708;50.660;6.778;2023-04-03T09:14:05;4.87;;;1.57;;
11305;SDS011;5708;50.660;6.778;2023-04-03T09:16:55;7.10;;;1.77;;
11305;SDS011;5708;50.660;6.778;2023-04-03T09:19:21;5.72;;;1.40;;
11305;SDS011;5708;50.660;6.778;2023-04-03T09:21:48;10.43;;;2.17;;
11305;SDS011;5708;50.660;6.778;2023-04-03T09:24:14;5.65;;;1.60;;
11305;SDS011;5708;50.660;6.778;2023-04-03T09:26:53;6.53;;;1.70;;
11305;SDS011;5708;50.660;6.778;2023-04-03T09:29:22;6.43;;;1.20;;
11305;SDS011;5708;50.660;6.778;2023-04-03T09:31:48;5.50;;;1.48;;
11305;SDS011;5708;50.660;6.778;2023-04-03T09:34:27;4.60;;;1.38;;
11305;SDS011;5708;50.660;6.778;2023-04-03T09:36:57;4.90;;;1.38;;
11305;SDS011;5708;50.660;6.778;2023-04-03T09:39:27;4.03;;;1.30;;
11305;SDS011;5708;50.660;6.778;2023-04-03T09:42:03;6.53;;;1.67;;
11305;SDS011;5708;50.660;6.778;2023-04-03T09:46:57;4.22;;;1.40;;
11305;SDS011;5708;50.660;6.778;2023-04-03T09:49:23;6.45;;;1.63;;
11305;SDS011;5708;50.660;6.778;2023-04-03T09:51:48;6.60;;;1.50;;
11305;SDS011;5708;50.660;6.778;2023-04-03T09:54:24;5.55;;;1.52;;
11305;SDS011;5708;50.660;6.778;2023-04-03T09:56:50;7.10;;;1.45;;
11305;SDS011;5708;50.660;6.778;2023-04-03T09:59:16;5.65;;;1.90;;
11305;SDS011;5708;50.660;6.778;2023-04-03T10:01:42;6.22;;;1.40;;
11305;SDS011;5708;50.660;6.778;2023-04-03T10:04:12;5.18;;;1.50;;
11305;SDS011;5708;50.660;6.778;2023-04-03T10:06:39;8.50;;;2.28;;
11305;SDS011;5708;50.660;6.778;2023-04-03T10:11:48;6.82;;;1.55;;
11305;SDS011;5708;50.660;6.778;2023-04-03T10:14:21;5.32;;;1.40;;
11305;SDS011;5708;50.660;6.778;2023-04-03T10:16:57;4.15;;;1.50;;
11305;SDS011;5708;50.660;6.778;2023-04-03T10:21:56;5.40;;;1.40;;
11305;SDS011;5708;50.660;6.778;2023-04-03T10:29:55;6.45;;;1.85;;
11305;SDS011;5708;50.660;6.778;2023-04-03T10:34:47;7.80;;;1.65;;
11305;SDS011;5708;50.660;6.778;2023-04-03T10:42:46;6.97;;;1.50;;
11305;SDS011;5708;50.660;6.778;2023-04-03T10:52:54;4.90;;;1.65;;
11305;SDS011;5708;50.660;6.778;2023-04-03T10:58:06;4.25;;;1.42;;
11305;SDS011;5708;50.660;6.778;2023-04-03T11:00:45;5.40;;;0.90;;
11305;SDS011;5708;50.660;6.778;2023-04-03T11:03:16;4.75;;;1.30;;
11305;SDS011;5708;50.660;6.778;2023-04-03T11:05:50;4.82;;;1.48;;
11305;SDS011;5708;50.660;6.778;2023-04-03T11:11:00;4.20;;;1.20;;
11305;SDS011;5708;50.660;6.778;2023-04-03T11:13:34;5.30;;;1.30;;
11305;SDS011;5708;50.660;6.778;2023-04-03T11:16:00;5.07;;;1.23;;
11305;SDS011;5708;50.660;6.778;2023-04-03T11:21:03;7.53;;;1.27;;
11305;SDS011;5708;50.660;6.778;2023-04-03T11:23:33;5.68;;;1.35;;
11305;SDS011;5708;50.660;6.778;2023-04-03T11:26:05;2.70;;;1.17;;
11305;SDS011;5708;50.660;6.778;2023-04-03T11:28:32;5.47;;;1.20;;
11305;SDS011;5708;50.660;6.778;2023-04-03T11:36:29;3.38;;;1.02;;
11305;SDS011;5708;50.660;6.778;2023-04-03T11:38:57;4.00;;;1.10;;
11305;SDS011;5708;50.660;6.778;2023-04-03T11:41:28;5.47;;;1.02;;
11305;SDS011;5708;50.660;6.778;2023-04-03T11:44:04;4.38;;;1.10;;
11305;SDS011;5708;50.660;6.778;2023-04-03T11:52:12;3.15;;;0.95;;
11305;SDS011;5708;50.660;6.778;2023-04-03T11:59:47;5.20;;;1.00;;
11305;SDS011;5708;50.660;6.778;2023-04-03T12:02:35;5.10;;;1.25;;
11305;SDS011;5708;50.660;6.778;2023-04-03T12:05:24;4.20;;;1.08;;
11305;SDS011;5708;50.660;6.778;2023-04-03T12:08:15;3.10;;;1.00;;
11305;SDS011;5708;50.660;6.778;2023-04-03T12:10:37;5.93;;;1.05;;
11305;SDS011;5708;50.660;6.778;2023-04-03T12:13:12;4.78;;;1.10;;
11305;SDS011;5708;50.660;6.778;2023-04-03T12:15:44;3.83;;;0.90;;
11305;SDS011;5708;50.660;6.778;2023-04-03T12:21:10;4.47;;;1.25;;
11305;SDS011;5708;50.660;6.778;2023-04-03T12:23:58;2.80;;;1.10;;
11305;SDS011;5708;50.660;6.778;2023-04-03T12:26:22;3.05;;;1.08;;
11305;SDS011;5708;50.660;6.778;2023-04-03T12:28:50;3.13;;;0.90;;
11305;SDS011;5708;50.660;6.778;2023-04-03T12:31:17;2.83;;;0.95;;
11305;SDS011;5708;50.660;6.778;2023-04-03T12:36:42;4.18;;;1.13;;
11305;SDS011;5708;50.660;6.778;2023-04-03T12:39:13;4.80;;;1.40;;
11305;SDS011;5708;50.660;6.778;2023-04-03T12:41:46;3.35;;;1.20;;
11305;SDS011;5708;50.660;6.778;2023-04-03T12:46:48;2.75;;;1.20;;
11305;SDS011;5708;50.660;6.778;2023-04-03T12:49:22;5.20;;;1.10;;
11305;SDS011;5708;50.660;6.778;2023-04-03T12:51:49;3.10;;;1.20;;
11305;SDS011;5708;50.660;6.778;2023-04-03T12:54:19;2.92;;;0.93;;
11305;SDS011;5708;50.660;6.778;2023-04-03T12:56:46;2.67;;;0.93;;
11305;SDS011;5708;50.660;6.778;2023-04-03T12:59:16;5.03;;;1.48;;
11305;SDS011;5708;50.660;6.778;2023-04-03T13:01:42;5.22;;;1.33;;
11305;SDS011;5708;50.660;6.778;2023-04-03T13:04:09;6.03;;;1.10;;
11305;SDS011;5708;50.660;6.778;2023-04-03T13:06:40;4.55;;;1.00;;
11305;SDS011;5708;50.660;6.778;2023-04-03T13:09:06;4.93;;;1.05;;
11305;SDS011;5708;50.660;6.778;2023-04-03T13:11:32;4.82;;;1.10;;
11305;SDS011;5708;50.660;6.778;2023-04-03T13:14:04;4.65;;;1.17;;
11305;SDS011;5708;50.660;6.778;2023-04-03T13:16:30;5.53;;;1.02;;
11305;SDS011;5708;50.660;6.778;2023-04-03T13:18:56;2.38;;;1.10;;
11305;SDS011;5708;50.660;6.778;2023-04-03T13:21:26;5.43;;;1.20;;
11305;SDS011;5708;50.660;6.778;2023-04-03T13:23:52;2.78;;;0.93;;
11305;SDS011;5708;50.660;6.778;2023-04-03T13:26:20;3.58;;;1.02;;
11305;SDS011;5708;50.660;6.778;2023-04-03T13:28:46;3.33;;;0.90;;
11305;SDS011;5708;50.660;6.778;2023-04-03T13:33:38;3.17;;;1.10;;
11305;SDS011;5708;50.660;6.778;2023-04-03T13:36:15;3.95;;;1.13;;
11305;SDS011;5708;50.660;6.778;2023-04-03T13:38:42;3.30;;;1.05;;
11305;SDS011;5708;50.660;6.778;2023-04-03T13:41:24;5.45;;;1.50;;
11305;SDS011;5708;50.660;6.778;2023-04-03T13:43:53;3.42;;;1.00;;
11305;SDS011;5708;50.660;6.778;2023-04-03T13:48:45;3.42;;;1.10;;
11305;SDS011;5708;50.660;6.778;2023-04-03T13:53:44;2.97;;;0.90;;
11305;SDS011;5708;50.660;6.778;2023-04-03T13:56:16;2.50;;;0.88;;
11305;SDS011;5708;50.660;6.778;2023-04-03T13:58:54;1.83;;;0.75;;
11305;SDS011;5708;50.660;6.778;2023-04-03T14:01:20;4.45;;;1.30;;
11305;SDS011;5708;50.660;6.778;2023-04-03T14:03:47;3.88;;;1.00;;
11305;SDS011;5708;50.660;6.778;2023-04-03T14:06:16;6.45;;;1.05;;
11305;SDS011;5708;50.660;6.778;2023-04-03T14:08:42;3.78;;;1.05;;
11305;SDS011;5708;50.660;6.778;2023-04-03T14:11:14;2.55;;;1.00;;
11305;SDS011;5708;50.660;6.778;2023-04-03T14:13:40;3.67;;;1.00;;
11305;SDS011;5708;50.660;6.778;2023-04-03T14:16:05;4.38;;;1.23;;
11305;SDS011;5708;50.660;6.778;2023-04-03T14:18:31;3.50;;;1.20;;
11305;SDS011;5708;50.660;6.778;2023-04-03T14:20:56;2.65;;;0.90;;
11305;SDS011;5708;50.660;6.778;2023-04-03T14:23:22;2.20;;;0.90;;
11305;SDS011;5708;50.660;6.778;2023-04-03T14:25:47;3.35;;;1.13;;
11305;SDS011;5708;50.660;6.778;2023-04-03T14:28:17;6.70;;;1.30;;
11305;SDS011;5708;50.660;6.778;2023-04-03T14:30:43;3.92;;;1.30;;
11305;SDS011;5708;50.660;6.778;2023-04-03T14:33:10;5.68;;;1.55;;
11305;SDS011;5708;50.660;6.778;2023-04-03T14:35:37;2.97;;;1.20;;
11305;SDS011;5708;50.660;6.778;2023-04-03T14:38:05;5.47;;;1.30;;
11305;SDS011;5708;50.660;6.778;2023-04-03T14:40:30;4.85;;;1.20;;
11305;SDS011;5708;50.660;6.778;2023-04-03T14:42:55;3.43;;;1.20;;
11305;SDS011;5708;50.660;6.778;2023-04-03T14:45:22;2.97;;;1.30;;
11305;SDS011;5708;50.660;6.778;2023-04-03T14:47:48;5.43;;;1.35;;
11305;SDS011;5708;50.660;6.778;2023-04-03T14:50:17;3.22;;;1.33;;
11305;SDS011;5708;50.660;6.778;2023-04-03T14:52:43;4.03;;;1.42;;
11305;SDS011;5708;50.660;6.778;2023-04-03T14:55:09;2.65;;;1.10;;
11305;SDS011;5708;50.660;6.778;2023-04-03T14:57:34;4.32;;;1.42;;
11305;SDS011;5708;50.660;6.778;2023-04-03T15:00:00;2.40;;;1.10;;
11305;SDS011;5708;50.660;6.778;2023-04-03T15:02:28;4.38;;;1.40;;
11305;SDS011;5708;50.660;6.778;2023-04-03T15:04:54;3.60;;;1.20;;
11305;SDS011;5708;50.660;6.778;2023-04-03T15:07:19;2.97;;;1.30;;
11305;SDS011;5708;50.660;6.778;2023-04-03T15:09:48;3.90;;;1.38;;
11305;SDS011;5708;50.660;6.778;2023-04-03T15:12:13;4.65;;;1.35;;
11305;SDS011;5708;50.660;6.778;2023-04-03T15:14:38;4.53;;;1.70;;
11305;SDS011;5708;50.660;6.778;2023-04-03T15:17:04;3.03;;;1.52;;
11305;SDS011;5708;50.660;6.778;2023-04-03T15:19:31;4.50;;;1.27;;
11305;SDS011;5708;50.660;6.778;2023-04-03T15:22:00;3.85;;;1.17;;
11305;SDS011;5708;50.660;6.778;2023-04-03T15:24:25;3.75;;;1.40;;
11305;SDS011;5708;50.660;6.778;2023-04-03T15:26:50;3.03;;;1.27;;
11305;SDS011;5708;50.660;6.778;2023-04-03T15:29:17;5.22;;;1.30;;
11305;SDS011;5708;50.660;6.778;2023-04-03T15:31:42;4.43;;;1.58;;
11305;SDS011;5708;50.660;6.778;2023-04-03T15:34:07;4.83;;;1.40;;
11305;SDS011;5708;50.660;6.778;2023-04-03T15:36:32;4.60;;;1.27;;
11305;SDS011;5708;50.660;6.778;2023-04-03T15:38:57;6.90;;;1.30;;
11305;SDS011;5708;50.660;6.778;2023-04-03T15:41:23;4.07;;;1.20;;
11305;SDS011;5708;50.660;6.778;2023-04-03T15:43:51;2.50;;;1.30;;
11305;SDS011;5708;50.660;6.778;2023-04-03T15:46:16;5.70;;;1.60;;
11305;SDS011;5708;50.660;6.778;2023-04-03T15:48:41;4.00;;;1.20;;
11305;SDS011;5708;50.660;6.778;2023-04-03T15:51:07;4.60;;;1.45;;
11305;SDS011;5708;50.660;6.778;2023-04-03T15:53:32;2.47;;;1.00;;
11305;SDS011;5708;50.660;6.778;2023-04-03T15:55:57;4.37;;;1.30;;
11305;SDS011;5708;50.660;6.778;2023-04-03T15:58:23;5.63;;;1.30;;
11305;SDS011;5708;50.660;6.778;2023-04-03T16:00:48;3.67;;;1.33;;
11305;SDS011;5708;50.660;6.778;2023-04-03T16:03:17;2.87;;;1.20;;
11305;SDS011;5708;50.660;6.778;2023-04-03T16:05:43;4.70;;;1.40;;
11305;SDS011;5708;50.660;6.778;2023-04-03T16:08:08;3.70;;;1.17;;
11305;SDS011;5708;50.660;6.778;2023-04-03T16:10:34;3.25;;;1.13;;
11305;SDS011;5708;50.660;6.778;2023-04-03T16:12:59;5.25;;;1.30;;
11305;SDS011;5708;50.660;6.778;2023-04-03T16:15:25;3.53;;;1.30;;
11305;SDS011;5708;50.660;6.778;2023-04-03T16:17:51;4.43;;;1.42;;
11305;SDS011;5708;50.660;6.778;2023-04-03T16:20:17;3.40;;;1.30;;
11305;SDS011;5708;50.660;6.778;2023-04-03T16:22:43;3.38;;;1.20;;